Time;durP1;ratioP1;P1;durP2;ratioP2;P2;SDS_P1;SDS_P2;PMS_P1;PMS_P2;Temp;Humidity;BMP_temperature;BMP_pressure;BME280_temperature;BME280_humidity;BME280_pressure;Samples;Min_cycle;Max_cycle;Signal;HPM_P1;HPM_P2
2022/05/25 00:01:45;;;;;;;;;3.00;2.00;;;;;12.58;75.10;100969.25;5100014;27;45391;-71
2022/05/25 00:04:10;;;;;;;;;2.00;2.00;;;;;12.58;75.17;100979.09;5103585;27;45508;-71
2022/05/25 00:06:36;;;;;;;;;3.00;3.00;;;;;12.49;75.40;100968.47;5119190;27;46919;-71
2022/05/25 00:09:02;;;;;;;;;3.00;3.00;;;;;12.49;75.29;100965.81;5120563;27;45379;-71
2022/05/25 00:11:27;;;;;;;;;3.67;3.00;;;;;12.41;75.81;100965.91;5120440;27;45353;-71
2022/05/25 00:13:53;;;;;;;;;2.00;1.00;;;;;12.44;75.51;100972.69;5119285;27;45383;-71
2022/05/25 00:16:18;;;;;;;;;3.00;3.00;;;;;12.35;75.48;100956.81;5120727;27;45288;-71
2022/05/25 00:21:28;;;;;;;;;2.00;2.00;;;;;12.38;75.70;100966.25;5124045;27;45321;-72
2022/05/25 00:23:53;;;;;;;;;1.67;1.67;;;;;12.31;76.02;100952.84;5124199;27;45291;-71
2022/05/25 00:26:19;;;;;;;;;1.67;1.67;;;;;12.30;76.33;100961.81;5123615;27;45265;-71
2022/05/25 00:28:44;;;;;;;;;1.33;1.33;;;;;12.33;76.23;100966.81;5123989;27;45265;-72
2022/05/25 00:31:09;;;;;;;;;1.00;1.00;;;;;12.16;76.24;100942.16;5124017;27;45189;-71
2022/05/25 00:33:35;;;;;;;;;2.00;2.00;;;;;12.23;76.14;100961.72;5122883;27;45240;-71
2022/05/25 00:36:01;;;;;;;;;3.00;3.00;;;;;12.28;76.66;100971.84;5123839;27;45377;-71
2022/05/25 00:38:26;;;;;;;;;1.33;1.33;;;;;12.22;76.66;100972.56;5123828;27;45221;-71
2022/05/25 00:40:52;;;;;;;;;1.33;1.33;;;;;12.19;76.53;100967.59;5123330;27;45378;-72
2022/05/25 00:43:17;;;;;;;;;3.67;3.67;;;;;12.18;76.59;100966.75;5122690;27;45302;-71
2022/05/25 00:45:51;;;;;;;;;4.33;3.33;;;;;12.05;76.42;100955.84;5123912;27;45221;-71
2022/05/25 00:48:28;;;;;;;;;2.33;2.33;;;;;12.13;76.59;100971.81;5123636;27;46348;-71
2022/05/25 00:51:12;;;;;;;;;4.67;3.00;;;;;12.08;76.91;100967.03;5123651;27;45354;-71
2022/05/25 00:53:48;;;;;;;;;2.33;2.33;;;;;12.06;76.59;100968.19;5123734;27;45276;-71
2022/05/25 00:56:16;;;;;;;;;4.00;4.00;;;;;12.08;76.81;100982.16;5123193;27;45383;-71
2022/05/25 00:58:52;;;;;;;;;2.67;2.67;;;;;12.07;77.07;100983.19;5122119;27;47027;-71
2022/05/25 01:01:17;;;;;;;;;3.00;3.00;;;;;11.97;76.60;100975.38;5123548;27;45364;-71
2022/05/25 01:03:43;;;;;;;;;3.33;3.33;;;;;11.98;77.11;100991.19;5123556;27;45509;-71
2022/05/25 01:06:23;;;;;;;;;3.33;3.33;;;;;11.97;77.03;100991.34;5102769;27;45309;-71
2022/05/25 01:09:12;;;;;;;;;3.33;3.33;;;;;11.93;76.96;100998.91;5102630;27;46116;-71
2022/05/25 01:11:43;;;;;;;;;4.33;3.33;;;;;11.83;76.93;100985.78;5102321;27;45322;-71
2022/05/25 01:14:24;;;;;;;;;3.00;2.33;;;;;11.87;76.97;100991.59;5102861;27;45370;-71
2022/05/25 01:17:07;;;;;;;;;3.33;3.33;;;;;11.78;77.30;100993.50;5102389;27;45234;-71
2022/05/25 01:20:11;;;;;;;;;3.33;3.00;;;;;11.79;77.35;101005.78;5102602;27;45407;-71
2022/05/25 01:23:17;;;;;;;;;3.33;3.33;;;;;11.79;77.61;101010.31;5078495;27;45419;-71
2022/05/25 01:25:53;;;;;;;;;4.67;3.67;;;;;11.74;77.53;101014.31;5102397;27;45334;-70
2022/05/25 01:28:21;;;;;;;;;3.00;3.00;;;;;11.71;77.42;101013.84;5101910;27;45275;-71
2022/05/25 01:30:53;;;;;;;;;3.00;3.00;;;;;11.62;77.65;101002.41;5102204;27;45254;-71
2022/05/25 01:33:29;;;;;;;;;2.00;2.00;;;;;11.64;77.43;101013.69;5102407;27;45387;-71
2022/05/25 01:36:07;;;;;;;;;2.67;2.67;;;;;11.64;77.40;101011.03;5100846;27;45432;-71
2022/05/25 01:38:45;;;;;;;;;2.00;2.00;;;;;11.56;77.68;101003.09;5100853;27;46418;-71
2022/05/25 01:41:18;;;;;;;;;2.67;2.67;;;;;11.58;77.59;101019.72;5101647;27;46402;-71
2022/05/25 01:43:50;;;;;;;;;5.33;4.33;;;;;11.53;78.10;101016.75;5102350;27;45299;-71
2022/05/25 01:46:20;;;;;;;;;6.67;5.00;;;;;11.53;77.69;101016.75;5102252;27;45246;-71
2022/05/25 01:48:47;;;;;;;;;4.33;4.33;;;;;11.49;77.63;101010.94;5102097;27;45376;-71
2022/05/25 01:51:34;;;;;;;;;4.33;4.00;;;;;11.54;77.92;101026.41;5101999;27;45426;-71
2022/05/25 01:54:04;;;;;;;;;4.33;4.33;;;;;11.44;77.80;101014.13;5101934;27;45298;-71
2022/05/25 01:56:34;;;;;;;;;5.67;4.33;;;;;11.46;77.85;101025.44;5101756;27;45341;-71
2022/05/25 01:59:02;;;;;;;;;4.33;4.33;;;;;11.50;78.02;101033.91;5101875;27;45333;-71
2022/05/25 02:01:28;;;;;;;;;2.67;2.67;;;;;11.45;78.05;101026.44;5101831;27;45268;-71
2022/05/25 02:07:08;;;;;;;;;4.00;4.00;;;;;11.41;78.07;101040.28;5122359;27;45315;-71
2022/05/25 02:09:42;;;;;;;;;4.00;3.33;;;;;11.40;78.16;101025.31;5122413;27;45413;-71
2022/05/25 02:12:32;;;;;;;;;4.00;4.00;;;;;11.32;78.15;101020.84;5121957;27;46367;-71
2022/05/25 02:15:31;;;;;;;;;3.00;3.00;;;;;11.36;78.50;101032.78;5122258;27;45359;-71
2022/05/25 02:18:21;;;;;;;;;2.33;2.33;;;;;11.28;78.40;101028.34;5120144;27;45511;-71
2022/05/25 02:21:22;;;;;;;;;4.00;4.00;;;;;11.33;78.46;101041.13;5122104;27;45401;-71
2022/05/25 02:24:12;;;;;;;;;3.00;3.00;;;;;11.28;78.45;101038.97;5068839;27;46180;-71
2022/05/25 02:26:52;;;;;;;;;3.67;3.67;;;;;11.20;78.73;101034.50;5121780;27;45335;-71
2022/05/25 02:29:25;;;;;;;;;3.00;3.00;;;;;11.21;78.32;101049.47;5122199;27;45348;-71
2022/05/25 02:32:09;;;;;;;;;3.67;2.33;;;;;11.22;78.95;101052.97;5121954;27;45491;-71
2022/05/25 02:34:37;;;;;;;;;3.67;3.67;;;;;11.18;78.67;101049.81;5121927;27;46124;-71
2022/05/25 02:37:05;;;;;;;;;2.67;2.67;;;;;11.15;78.78;101050.16;5121847;27;45297;-71
2022/05/25 02:39:30;;;;;;;;;4.00;4.00;;;;;11.09;78.79;101053.50;5120934;27;45295;-71
2022/05/25 02:41:56;;;;;;;;;5.33;4.33;;;;;11.11;78.67;101057.63;5121406;27;45307;-71
2022/05/25 02:44:23;;;;;;;;;2.00;2.00;;;;;11.10;78.87;101049.81;5121937;27;45658;-71
2022/05/25 02:46:49;;;;;;;;;3.33;3.00;;;;;11.03;79.06;101049.69;5120368;27;45234;-71
2022/05/25 02:49:15;;;;;;;;;5.00;5.00;;;;;11.07;78.88;101064.31;5121968;27;45265;-71
2022/05/25 02:51:40;;;;;;;;;3.33;3.33;;;;;11.03;78.75;101051.50;5121722;27;45458;-71
2022/05/25 02:54:07;;;;;;;;;3.33;3.00;;;;;10.94;78.85;101040.91;5121257;27;45343;-71
2022/05/25 02:56:33;;;;;;;;;4.00;3.00;;;;;10.99;79.10;101056.34;5121327;27;45257;-71
2022/05/25 02:58:58;;;;;;;;;4.33;4.00;;;;;10.97;78.69;101067.16;5121662;27;45445;-71
2022/05/25 03:01:24;;;;;;;;;4.00;4.00;;;;;11.01;79.11;101074.81;5121555;27;46044;-71
2022/05/25 03:03:50;;;;;;;;;3.00;3.00;;;;;10.95;79.17;101063.00;5120829;27;45458;-71
2022/05/25 03:06:16;;;;;;;;;2.00;2.00;;;;;11.00;78.96;101081.94;5099285;27;45345;-71
2022/05/25 03:08:42;;;;;;;;;3.33;3.33;;;;;11.00;78.92;101084.59;5101090;27;45308;-71
2022/05/25 03:11:08;;;;;;;;;3.00;3.00;;;;;10.93;78.80;101072.97;5098899;27;45573;-71
2022/05/25 03:13:35;;;;;;;;;3.00;3.00;;;;;10.92;78.95;101079.31;5100774;27;45972;-71
2022/05/25 03:16:02;;;;;;;;;3.00;3.00;;;;;10.92;78.95;101085.44;5100715;27;45641;-71
2022/05/25 03:18:28;;;;;;;;;2.33;2.33;;;;;10.90;79.18;101091.94;5100720;27;45332;-71
2022/05/25 03:20:53;;;;;;;;;3.00;3.00;;;;;10.86;79.24;101086.94;5100635;27;45316;-71
2022/05/25 03:23:18;;;;;;;;;2.00;2.00;;;;;10.87;78.97;101098.41;5100442;27;46176;-71
2022/05/25 03:25:45;;;;;;;;;3.33;3.33;;;;;10.85;78.93;101095.94;5100350;27;45412;-71
2022/05/25 03:28:10;;;;;;;;;3.67;3.67;;;;;10.81;79.00;101096.44;5100752;27;45322;-72
2022/05/25 03:30:36;;;;;;;;;3.67;3.67;;;;;10.76;78.88;101096.09;5100409;27;45427;-71
2022/05/25 03:33:01;;;;;;;;;2.00;2.00;;;;;10.72;79.09;101101.72;5100462;27;45680;-71
2022/05/25 03:35:27;;;;;;;;;4.00;4.00;;;;;10.74;79.24;101112.19;5100492;27;45286;-71
2022/05/25 03:37:52;;;;;;;;;4.00;4.00;;;;;10.67;79.26;101105.88;5100636;27;45545;-71
2022/05/25 03:40:18;;;;;;;;;5.00;5.00;;;;;10.76;79.17;101120.00;5100168;27;45490;-71
2022/05/25 03:42:45;;;;;;;;;4.00;4.00;;;;;10.70;79.35;101118.84;5100354;27;46430;-71
2022/05/25 03:45:12;;;;;;;;;4.00;4.00;;;;;10.74;79.32;101128.16;5100486;27;45130;-71
2022/05/25 03:47:37;;;;;;;;;6.00;5.00;;;;;10.63;79.47;101108.06;5100393;27;45354;-71
2022/05/25 03:50:03;;;;;;;;;5.00;5.00;;;;;10.67;79.64;101116.53;5099961;27;45517;-70
2022/05/25 03:52:29;;;;;;;;;4.33;2.33;;;;;10.69;79.44;101119.84;5098842;27;48881;-71
2022/05/25 03:54:54;;;;;;;;;5.67;5.67;;;;;10.58;79.60;101102.41;5099897;27;45412;-70
2022/05/25 03:57:19;;;;;;;;;4.00;3.00;;;;;10.63;79.45;101123.16;5100167;27;45501;-71
2022/05/25 03:59:46;;;;;;;;;6.00;4.00;;;;;10.65;79.63;101135.28;5100087;27;45537;-71
2022/05/25 04:02:12;;;;;;;;;4.67;4.67;;;;;10.63;79.52;101142.63;5100094;27;45414;-71
2022/05/25 04:04:37;;;;;;;;;4.00;4.00;;;;;10.59;79.55;101136.78;5107121;27;45505;-71
2022/05/25 04:07:03;;;;;;;;;4.00;4.00;;;;;10.67;79.41;101151.94;5120732;27;45308;-71
2022/05/25 04:09:29;;;;;;;;;3.33;3.33;;;;;10.66;79.29;101155.59;5119216;27;46364;-71
2022/05/25 04:11:54;;;;;;;;;5.00;4.00;;;;;10.62;79.27;101145.44;5118882;27;47025;-71
2022/05/25 04:14:19;;;;;;;;;4.00;4.00;;;;;10.58;79.68;101137.78;5120617;27;45268;-71
2022/05/25 04:16:45;;;;;;;;;5.00;5.00;;;;;10.64;79.87;101154.06;5120566;27;45586;-71
2022/05/25 04:19:11;;;;;;;;;4.33;4.33;;;;;10.58;79.99;101147.59;5119161;27;46457;-71
2022/05/25 04:21:37;;;;;;;;;4.33;4.33;;;;;10.64;79.80;101159.38;5120555;27;45304;-71
2022/05/25 04:24:03;;;;;;;;;6.00;6.00;;;;;10.59;79.98;101151.91;5120477;27;45342;-71
2022/05/25 04:26:30;;;;;;;;;5.67;4.67;;;;;10.63;79.95;101160.38;5120141;27;45594;-71
2022/05/25 04:28:57;;;;;;;;;5.33;4.33;;;;;10.53;79.87;101141.94;5118992;27;46954;-71
2022/05/25 04:31:23;;;;;;;;;4.00;4.00;;;;;10.62;80.05;101156.88;5120245;27;46100;-70
2022/05/25 04:33:48;;;;;;;;;5.67;5.67;;;;;10.69;80.27;101159.72;5120281;27;45369;-70
2022/05/25 04:36:13;;;;;;;;;5.00;5.00;;;;;10.66;80.47;101157.41;5120234;27;45976;-71
2022/05/25 04:38:39;;;;;;;;;5.33;4.33;;;;;10.66;80.13;101163.56;5120400;27;45391;-71
2022/05/25 04:41:04;;;;;;;;;4.33;4.00;;;;;10.69;80.29;101159.72;5118357;27;47136;-71
2022/05/25 04:43:30;;;;;;;;;4.33;4.33;;;;;10.73;80.33;101171.69;5120242;27;45253;-71
2022/05/25 04:45:55;;;;;;;;;4.33;4.33;;;;;10.71;80.51;101166.53;5120283;27;45486;-71
2022/05/25 04:48:25;;;;;;;;;6.67;5.33;;;;;10.80;80.73;101179.81;5116598;27;45182;-71
2022/05/25 04:50:53;;;;;;;;;5.00;5.00;;;;;10.69;80.70;101165.88;5099083;27;45398;-72
2022/05/25 04:53:21;;;;;;;;;5.67;5.00;;;;;10.87;80.67;101191.50;5099371;27;45348;-71
2022/05/25 04:58:43;;;;;;;;;5.67;4.33;;;;;10.92;81.04;101189.16;5089432;27;45217;-71
2022/05/25 05:01:10;;;;;;;;;5.67;5.67;;;;;10.94;81.17;101187.16;5078700;28;46279;-71
2022/05/25 05:03:36;;;;;;;;;7.00;6.00;;;;;11.05;80.94;101191.31;5094328;27;45404;-71
2022/05/25 05:06:02;;;;;;;;;7.67;7.67;;;;;11.10;81.46;101190.81;5111652;27;45451;-71
2022/05/25 05:08:28;;;;;;;;;7.00;6.67;;;;;11.21;81.21;101208.28;5082401;27;45433;-71
2022/05/25 05:10:54;;;;;;;;;7.00;6.67;;;;;11.26;81.31;101199.81;5081875;27;46181;-71
2022/05/25 05:13:21;;;;;;;;;7.33;6.67;;;;;11.34;81.30;101207.75;5082252;28;45354;-71
2022/05/25 05:15:49;;;;;;;;;6.67;6.67;;;;;11.37;81.27;101202.09;5081951;27;45503;-72
2022/05/25 05:18:15;;;;;;;;;6.00;5.33;;;;;11.42;81.28;101209.59;5081604;27;45408;-71
2022/05/25 05:20:41;;;;;;;;;11.00;11.00;;;;;11.42;81.30;101194.47;5081815;28;46200;-71
2022/05/25 05:23:07;;;;;;;;;7.67;6.67;;;;;11.54;81.20;101215.41;5082053;28;45269;-71
2022/05/25 05:25:33;;;;;;;;;7.00;7.00;;;;;11.60;81.51;101214.72;5081929;27;45321;-71
2022/05/25 05:28:08;;;;;;;;;8.00;8.00;;;;;11.68;81.86;101208.56;5081947;28;45406;-70
2022/05/25 05:30:38;;;;;;;;;8.00;8.00;;;;;11.73;81.26;101207.03;5081868;28;46326;-70
2022/05/25 05:33:04;;;;;;;;;8.33;8.33;;;;;11.85;81.44;101214.66;5082034;27;45464;-70
2022/05/25 05:35:30;;;;;;;;;7.67;7.67;;;;;11.91;81.49;101227.28;5092379;27;45500;-71
2022/05/25 05:37:56;;;;;;;;;8.67;8.67;;;;;11.96;81.82;101230.28;5102178;27;45331;-70
2022/05/25 05:40:22;;;;;;;;;7.67;7.00;;;;;12.05;81.72;101233.75;5091228;27;46317;-70
2022/05/25 05:42:52;;;;;;;;;10.00;10.00;;;;;12.12;81.76;101228.56;5098608;27;45409;-71
2022/05/25 05:45:31;;;;;;;;;8.00;7.00;;;;;12.09;81.55;101223.63;5097268;27;45374;-72
2022/05/25 05:48:04;;;;;;;;;7.00;7.00;;;;;12.22;81.34;101239.06;5094353;27;46240;-71
2022/05/25 05:50:31;;;;;;;;;10.00;10.00;;;;;12.26;81.54;101245.69;5098439;27;46228;-72
2022/05/25 05:52:56;;;;;;;;;8.67;8.67;;;;;12.22;81.15;101237.19;5101278;27;45865;-71
2022/05/25 05:55:22;;;;;;;;;9.00;9.00;;;;;12.28;80.77;101233.03;5101154;27;45285;-72
2022/05/25 05:57:47;;;;;;;;;8.67;8.33;;;;;12.34;80.99;101243.00;5090300;27;45341;-71
2022/05/25 06:00:15;;;;;;;;;11.00;11.00;;;;;12.29;81.43;101224.03;5101961;27;45376;-71
2022/05/25 06:02:41;;;;;;;;;9.00;9.00;;;;;12.36;81.03;101226.81;5101985;27;45313;-72
2022/05/25 06:05:07;;;;;;;;;8.00;8.00;;;;;12.47;81.22;101229.09;5113073;27;45319;-71
2022/05/25 06:07:32;;;;;;;;;11.67;10.33;;;;;12.53;81.28;101232.06;5122400;27;45641;-71
2022/05/25 06:09:57;;;;;;;;;11.67;11.67;;;;;12.54;81.53;101221.22;5100243;27;45960;-70
2022/05/25 06:12:23;;;;;;;;;8.67;8.67;;;;;12.65;81.46;101233.34;5089159;27;45327;-70
2022/05/25 06:14:49;;;;;;;;;11.00;10.00;;;;;12.71;81.79;101229.97;5117905;27;45316;-71
2022/05/25 06:19:58;;;;;;;;;10.00;10.00;;;;;12.85;81.65;101228.38;5101479;27;45316;-71
2022/05/25 06:22:24;;;;;;;;;9.00;8.00;;;;;12.87;81.76;101217.53;5083332;27;45436;-71
2022/05/25 06:24:51;;;;;;;;;9.00;8.00;;;;;13.01;81.92;101234.59;5080949;28;45369;-71
2022/05/25 06:27:20;;;;;;;;;8.67;8.67;;;;;13.03;81.45;101226.41;5081009;27;45337;-71
2022/05/25 06:29:47;;;;;;;;;11.67;11.00;;;;;13.18;80.99;101237.13;5079608;28;47085;-71
2022/05/25 06:32:20;;;;;;;;;12.00;11.33;;;;;13.22;80.34;101244.59;5079539;28;45288;-70
2022/05/25 06:34:48;;;;;;;;;9.00;9.00;;;;;13.32;80.20;101255.03;5079538;28;45327;-73
2022/05/25 06:37:16;;;;;;;;;13.00;11.67;;;;;13.34;80.33;101249.50;5080843;27;45334;-72
2022/05/25 06:39:42;;;;;;;;;10.00;9.00;;;;;13.46;79.77;101258.75;5080602;27;45354;-72
2022/05/25 06:42:08;;;;;;;;;10.00;8.67;;;;;13.48;79.01;101259.41;5079003;28;45398;-72
2022/05/25 06:44:33;;;;;;;;;10.00;10.00;;;;;13.56;78.74;101261.19;5080911;28;45345;-72
2022/05/25 06:46:59;;;;;;;;;9.00;9.00;;;;;13.67;78.35;101278.63;5080756;28;45309;-72
2022/05/25 06:49:25;;;;;;;;;9.67;8.67;;;;;13.71;78.29;101269.22;5096495;27;47103;-73
2022/05/25 06:51:50;;;;;;;;;5.67;5.67;;;;;13.82;78.02;101281.31;5080702;28;45396;-72
2022/05/25 06:54:18;;;;;;;;;8.33;8.33;;;;;13.85;77.80;101272.09;5080705;28;45311;-72
2022/05/25 06:56:44;;;;;;;;;5.00;5.00;;;;;14.01;77.85;101284.47;5080160;27;45364;-71
2022/05/25 06:59:10;;;;;;;;;6.67;6.67;;;;;14.04;77.72;101272.56;5080451;27;45368;-72
2022/05/25 07:01:37;;;;;;;;;9.00;8.00;;;;;14.17;77.24;101283.44;5080633;28;45327;-72
2022/05/25 07:04:04;;;;;;;;;8.00;8.00;;;;;14.19;76.95;101273.38;5085287;27;45573;-72
2022/05/25 07:06:29;;;;;;;;;7.00;7.00;;;;;14.32;76.59;101288.78;5119852;27;46074;-72
2022/05/25 07:08:55;;;;;;;;;6.00;6.00;;;;;14.35;76.38;101287.59;5121178;27;45744;-72
2022/05/25 07:11:23;;;;;;;;;6.00;6.00;;;;;14.41;76.18;101277.97;5121385;27;45315;-72
2022/05/25 07:13:49;;;;;;;;;8.00;7.00;;;;;14.55;76.72;101295.88;5120482;27;45337;-72
2022/05/25 07:16:16;;;;;;;;;10.67;9.33;;;;;14.61;76.01;101297.78;5119679;27;47152;-72
2022/05/25 07:18:43;;;;;;;;;8.00;7.67;;;;;14.63;75.81;101293.06;5121339;27;45333;-72
2022/05/25 07:21:12;;;;;;;;;10.67;8.00;;;;;14.69;75.71;101293.34;5121223;27;45347;-72
2022/05/25 07:23:39;;;;;;;;;9.67;9.67;;;;;14.73;75.43;101297.31;5121426;27;45372;-72
2022/05/25 07:26:06;;;;;;;;;7.33;7.33;;;;;14.85;75.30;101303.81;5096512;27;45429;-72
2022/05/25 07:28:33;;;;;;;;;9.67;9.67;;;;;14.90;74.92;101303.25;5098282;27;45435;-72
2022/05/25 07:31:05;;;;;;;;;10.00;10.00;;;;;14.96;74.43;101301.66;5090860;27;45398;-72
2022/05/25 07:33:30;;;;;;;;;9.00;9.00;;;;;15.02;74.57;101306.28;5080113;28;45335;-72
2022/05/25 07:35:57;;;;;;;;;9.33;9.33;;;;;15.09;74.17;101304.50;5079688;28;45384;-72
2022/05/25 07:38:22;;;;;;;;;8.33;8.33;;;;;15.14;74.31;101299.41;5080082;27;46155;-72
2022/05/25 07:40:48;;;;;;;;;7.67;7.67;;;;;15.21;74.38;101302.16;5080862;27;45295;-73
2022/05/25 07:43:16;;;;;;;;;8.00;6.33;;;;;15.29;73.46;101306.53;5078694;27;45404;-72
2022/05/25 07:45:44;;;;;;;;;7.33;6.67;;;;;15.34;73.81;101305.97;5079431;27;45437;-73
2022/05/25 07:48:10;;;;;;;;;7.33;7.33;;;;;15.50;73.32;101323.59;5079716;27;45366;-72
2022/05/25 07:50:36;;;;;;;;;6.00;6.00;;;;;15.52;72.30;101308.19;5095410;27;45303;-72
2022/05/25 07:53:04;;;;;;;;;7.00;7.00;;;;;15.63;71.97;101312.19;5080098;27;45428;-73
2022/05/25 07:55:29;;;;;;;;;7.67;7.67;;;;;15.64;72.49;101303.13;5079108;28;45518;-73
2022/05/25 07:57:54;;;;;;;;;6.00;6.00;;;;;15.80;71.75;101314.59;5079208;28;45879;-72
2022/05/25 08:00:24;;;;;;;;;8.67;8.00;;;;;15.92;71.81;101326.41;5079582;28;45227;-73
2022/05/25 08:05:44;;;;;;;;;8.00;8.00;;;;;16.06;70.76;101324.69;5111077;27;45366;-73
2022/05/25 08:08:17;;;;;;;;;8.33;8.33;;;;;16.17;70.29;101325.16;5120489;27;45384;-73
2022/05/25 08:10:44;;;;;;;;;6.00;6.00;;;;;16.25;70.54;101323.13;5118766;27;46273;-73
2022/05/25 08:13:13;;;;;;;;;7.33;7.00;;;;;16.37;70.47;101331.44;5119357;27;45417;-72
2022/05/25 08:15:42;;;;;;;;;7.00;7.00;;;;;16.35;69.26;101344.25;5120436;27;45290;-72
2022/05/25 08:18:09;;;;;;;;;7.67;7.00;;;;;16.34;69.09;101341.75;5119124;27;48297;-73
2022/05/25 08:20:35;;;;;;;;;6.00;5.00;;;;;16.35;69.84;101338.03;5120566;27;45384;-73
2022/05/25 08:23:04;;;;;;;;;5.00;5.00;;;;;16.51;68.74;101340.41;5120571;27;45294;-72
2022/05/25 08:25:29;;;;;;;;;5.00;5.00;;;;;16.60;67.16;101345.56;5118795;27;46097;-73
2022/05/25 08:27:54;;;;;;;;;5.67;5.67;;;;;16.72;67.52;101341.31;5120085;27;46114;-73
2022/05/25 08:30:20;;;;;;;;;6.67;6.67;;;;;16.86;68.23;101327.94;5118722;27;45346;-73
2022/05/25 08:32:46;;;;;;;;;6.00;6.00;;;;;16.99;67.38;101338.72;5119291;27;45251;-72
2022/05/25 08:35:13;;;;;;;;;6.00;5.67;;;;;16.97;67.63;101329.22;5120335;27;45755;-72
2022/05/25 08:37:39;;;;;;;;;5.67;5.67;;;;;16.98;67.70;101333.53;5121176;27;45619;-72
2022/05/25 08:40:05;;;;;;;;;7.33;5.00;;;;;16.91;66.90;101347.75;5123339;27;45372;-73
2022/05/25 08:42:36;;;;;;;;;4.67;4.67;;;;;16.81;66.15;101338.44;5122683;27;45263;-73
2022/05/25 08:45:02;;;;;;;;;2.33;2.33;;;;;16.84;66.68;101332.66;5123747;27;45329;-72
2022/05/25 08:47:28;;;;;;;;;3.00;2.00;;;;;16.97;65.91;101334.56;5123747;27;46337;-73
2022/05/25 08:49:55;;;;;;;;;2.67;2.67;;;;;17.16;66.00;101333.00;5122452;27;45636;-72
2022/05/25 08:52:31;;;;;;;;;1.33;1.33;;;;;17.38;64.67;101335.47;5123799;27;45518;-72
2022/05/25 08:55:03;;;;;;;;;4.00;3.00;;;;;17.49;63.31;101329.53;5123405;27;45404;-72
2022/05/25 08:57:34;;;;;;;;;3.00;1.67;;;;;17.59;63.16;101328.25;5123216;27;47189;-72
2022/05/25 09:00:14;;;;;;;;;2.67;2.00;;;;;17.65;63.80;101332.81;5121948;27;45248;-73
2022/05/25 09:03:22;;;;;;;;;3.00;3.00;;;;;17.70;62.33;101324.13;5123681;27;45340;-72
2022/05/25 09:06:05;;;;;;;;;2.00;1.67;;;;;17.73;60.50;101334.47;5105653;27;45393;-72
2022/05/25 09:08:59;;;;;;;;;1.00;1.00;;;;;17.82;61.33;101332.38;5102795;27;45390;-72
2022/05/25 09:11:33;;;;;;;;;1.33;1.33;;;;;17.83;61.07;101331.34;5101111;27;46164;-72
2022/05/25 09:14:06;;;;;;;;;1.67;1.33;;;;;17.91;60.01;101337.34;5102882;27;45357;-73
2022/05/25 09:16:34;;;;;;;;;1.00;1.00;;;;;17.93;60.96;101339.84;5101115;27;45247;-72
2022/05/25 09:19:08;;;;;;;;;3.00;2.00;;;;;18.02;61.23;101337.75;5102672;27;46206;-72
2022/05/25 09:21:39;;;;;;;;;1.33;1.33;;;;;18.09;60.61;101333.19;5102641;27;45232;-73
2022/05/25 09:24:11;;;;;;;;;2.00;1.00;;;;;18.19;60.14;101335.44;5102759;27;45343;-73
2022/05/25 09:26:37;;;;;;;;;0.67;0.67;;;;;18.27;59.14;101348.69;5097809;27;45752;-73
2022/05/25 09:29:07;;;;;;;;;2.67;2.67;;;;;18.33;58.86;101346.19;5081881;27;45374;-73
2022/05/25 09:31:38;;;;;;;;;0.00;0.00;;;;;18.33;58.42;101341.63;5096290;27;45801;-73
2022/05/25 09:34:10;;;;;;;;;1.00;1.00;;;;;18.40;58.67;101345.13;5088916;27;45324;-73
2022/05/25 09:36:48;;;;;;;;;0.00;0.00;;;;;18.44;58.26;101333.94;5087543;27;45611;-75
2022/05/25 09:39:34;;;;;;;;;1.00;1.00;;;;;18.55;57.75;101350.25;5102153;27;45315;-73
2022/05/25 09:42:04;;;;;;;;;1.00;1.00;;;;;18.51;57.22;101351.72;5085179;27;45286;-73
2022/05/25 09:44:29;;;;;;;;;0.33;0.33;;;;;18.38;55.66;101341.00;5081979;27;45402;-72
2022/05/25 09:47:27;;;;;;;;;1.00;1.00;;;;;18.46;55.94;101343.44;5097179;27;46005;-73
2022/05/25 09:49:57;;;;;;;;;0.00;0.00;;;;;18.54;55.26;101345.06;5078343;27;47395;-73
2022/05/25 09:52:35;;;;;;;;;0.00;0.00;;;;;18.62;55.17;101347.50;5092994;27;45221;-73
2022/05/25 09:55:33;;;;;;;;;0.00;0.00;;;;;18.67;54.64;101336.94;5102042;27;45310;-72
2022/05/25 09:58:01;;;;;;;;;0.33;0.33;;;;;18.66;54.16;101326.41;5087279;27;45558;-73
2022/05/25 10:00:35;;;;;;;;;2.00;0.67;;;;;18.79;54.35;101339.78;5101949;27;45248;-72
2022/05/25 10:03:02;;;;;;;;;0.33;0.33;;;;;18.85;52.74;101348.88;5101938;27;45336;-73
2022/05/25 10:05:33;;;;;;;;;0.00;0.00;;;;;18.89;53.40;101350.09;5116300;27;45224;-73
2022/05/25 10:08:05;;;;;;;;;0.67;0.67;;;;;18.98;53.65;101348.00;5122479;27;45372;-72
2022/05/25 10:10:33;;;;;;;;;0.00;0.00;;;;;19.04;53.13;101351.69;5122120;27;46212;-73
2022/05/25 10:13:02;;;;;;;;;0.00;0.00;;;;;19.11;53.44;101340.88;5120951;27;45807;-73
2022/05/25 10:15:34;;;;;;;;;0.67;0.67;;;;;19.18;52.30;101342.50;5110835;27;45395;-73
2022/05/25 10:18:01;;;;;;;;;0.00;0.00;;;;;19.29;51.63;101346.38;5099273;27;45443;-72
2022/05/25 10:20:41;;;;;;;;;0.00;0.00;;;;;19.38;52.31;101356.88;5081080;28;45333;-72
2022/05/25 10:23:12;;;;;;;;;1.00;1.00;;;;;19.36;51.43;101346.31;5081189;27;45514;-72
2022/05/25 10:25:45;;;;;;;;;1.33;0.67;;;;;19.27;50.43;101332.28;5079583;28;45252;-73
2022/05/25 10:28:32;;;;;;;;;1.00;1.00;;;;;19.27;50.90;101328.75;5079739;28;46044;-72
2022/05/25 10:37:16;;;;;;;;;1.00;0.00;;;;;19.73;46.48;101342.91;5080873;28;45323;-72
2022/05/25 10:39:53;;;;;;;;;0.00;0.00;;;;;19.98;45.28;101352.84;5080682;27;45333;-71
2022/05/25 10:42:26;;;;;;;;;0.00;0.00;;;;;20.08;44.64;101338.84;5080701;28;45638;-72
2022/05/25 10:45:06;;;;;;;;;0.67;0.67;;;;;20.37;45.02;101349.97;5080981;28;45342;-72
2022/05/25 10:47:55;;;;;;;;;0.00;0.00;;;;;20.60;45.25;101353.03;5098709;27;45405;-73
2022/05/25 10:50:53;;;;;;;;;0.00;0.00;;;;;20.82;44.30;101356.06;5100664;27;45631;-72
2022/05/25 10:53:43;;;;;;;;;1.33;0.67;;;;;21.01;44.53;101350.66;5099601;27;47620;-72
2022/05/25 10:56:36;;;;;;;;;1.33;0.67;;;;;21.25;44.09;101365.03;5100700;27;45360;-73
2022/05/25 10:59:21;;;;;;;;;0.00;0.00;;;;;21.43;43.25;101353.34;5100989;27;45420;-74
2022/05/25 11:02:16;;;;;;;;;0.00;0.00;;;;;21.64;42.72;101337.59;5100034;27;45352;-75
2022/05/25 11:05:02;;;;;;;;;0.00;0.00;;;;;21.71;41.97;101332.09;5111843;27;47196;-73
2022/05/25 11:07:39;;;;;;;;;0.00;0.00;;;;;21.92;42.10;101356.94;5099439;27;45709;-72
2022/05/25 11:10:13;;;;;;;;;1.00;1.00;;;;;22.03;41.48;101341.75;5100779;27;45277;-72
2022/05/25 11:12:50;;;;;;;;;0.00;0.00;;;;;22.26;42.15;101351.72;5099188;27;46228;-72
2022/05/25 11:15:43;;;;;;;;;0.00;0.00;;;;;22.41;38.06;101344.97;5100622;27;45341;-72
2022/05/25 11:18:54;;;;;;;;;0.67;0.67;;;;;22.45;40.03;101343.44;5100695;27;45334;-72
2022/05/25 11:21:44;;;;;;;;;0.00;0.00;;;;;22.52;38.96;101340.56;5100919;27;45285;-73
2022/05/25 11:24:38;;;;;;;;;0.67;0.67;;;;;22.60;38.37;101344.81;5100559;27;45574;-72
2022/05/25 11:27:44;;;;;;;;;0.00;0.00;;;;;22.66;39.98;101344.66;5098978;27;48551;-72
2022/05/25 11:30:18;;;;;;;;;0.00;0.00;;;;;22.75;38.71;101341.59;5099144;27;45326;-72
2022/05/25 11:33:00;;;;;;;;;0.00;0.00;;;;;22.84;38.83;101345.56;5100753;27;45281;-72
2022/05/25 11:35:57;;;;;;;;;0.00;0.00;;;;;22.96;38.81;101353.63;5098886;27;46306;-72
2022/05/25 11:38:39;;;;;;;;;0.00;0.00;;;;;23.11;38.78;101344.97;5100507;27;45364;-72
2022/05/25 11:41:38;;;;;;;;;0.00;0.00;;;;;23.11;37.89;101346.84;5099806;27;45408;-72
2022/05/25 11:44:22;;;;;;;;;1.00;0.00;;;;;23.20;37.97;101343.47;5099157;27;45466;-71
2022/05/25 11:46:50;;;;;;;;;0.00;0.00;;;;;23.25;36.86;101344.66;5100356;27;45448;-72
2022/05/25 11:49:33;;;;;;;;;0.00;0.00;;;;;23.42;38.10;101344.66;5100195;27;46548;-72
2022/05/25 11:52:17;;;;;;;;;0.00;0.00;;;;;23.63;36.90;101350.41;5098820;27;46077;-72
2022/05/25 11:54:48;;;;;;;;;0.00;0.00;;;;;23.76;35.98;101355.50;5100156;27;45427;-72
2022/05/25 11:57:49;;;;;;;;;0.00;0.00;;;;;23.84;36.30;101348.81;5091264;27;45542;-72
2022/05/25 12:00:21;;;;;;;;;0.00;0.00;;;;;23.90;35.62;101344.28;5089779;27;45280;-72
2022/05/25 12:02:58;;;;;;;;;0.00;0.00;;;;;24.03;36.33;101338.50;5098552;27;45395;-72
2022/05/25 12:06:00;;;;;;;;;0.00;0.00;;;;;24.11;36.41;101342.69;5113836;27;45274;-73